Time;durP1;ratioP1;P1;durP2;ratioP2;P2;SDS_P1;SDS_P2;PMS_P1;PMS_P2;Temp;Humidity;BMP_temperature;BMP_pressure;BME280_temperature;BME280_humidity;BME280_pressure;Samples;Min_cycle;Max_cycle;Signal;HPM_P1;HPM_P2
2024/01/13 00:02:15;;;;;;;19.08;4.15;;;2.60;99.90;;;;;;5095447;28;20402;-77
2024/01/13 00:04:40;;;;;;;28.02;4.85;;;2.60;99.90;;;;;;5094401;28;20388;-77
2024/01/13 00:07:06;;;;;;;26.83;4.67;;;2.60;99.90;;;;;;5098334;28;20409;-77
2024/01/13 00:09:31;;;;;;;26.43;5.57;;;2.60;99.90;;;;;;5098842;28;20508;-77
2024/01/13 00:11:57;;;;;;;22.00;5.57;;;2.60;99.90;;;;;;5097922;28;20842;-77
2024/01/13 00:14:23;;;;;;;25.23;5.70;;;2.60;99.90;;;;;;5098333;28;20425;-77
2024/01/13 00:16:49;;;;;;;20.17;5.40;;;2.60;99.90;;;;;;5095969;28;20408;-77
2024/01/13 00:19:14;;;;;;;22.58;6.20;;;2.60;99.90;;;;;;5090621;28;20815;-77
2024/01/13 00:21:40;;;;;;;26.48;5.60;;;2.60;99.90;;;;;;5095788;28;20513;-77
2024/01/13 00:24:06;;;;;;;25.27;6.37;;;2.50;99.90;;;;;;5099533;28;20793;-77
2024/01/13 00:26:32;;;;;;;23.33;6.22;;;2.60;99.90;;;;;;5099014;28;20402;-77
2024/01/13 00:28:57;;;;;;;26.00;6.78;;;2.50;99.90;;;;;;5101515;28;20396;-77
2024/01/13 00:31:23;;;;;;;26.63;6.75;;;2.50;99.90;;;;;;5099249;28;20448;-77
2024/01/13 00:33:48;;;;;;;21.33;6.87;;;2.50;99.90;;;;;;5100578;28;20440;-77
2024/01/13 00:36:14;;;;;;;29.17;8.02;;;2.50;99.90;;;;;;5095041;28;20457;-77
2024/01/13 00:38:40;;;;;;;26.98;8.05;;;2.50;99.90;;;;;;5106623;28;20404;-78
2024/01/13 00:41:05;;;;;;;28.30;8.33;;;2.60;99.90;;;;;;5104984;28;20906;-77
2024/01/13 00:43:31;;;;;;;19.30;7.32;;;2.60;99.90;;;;;;5106549;28;20407;-77
2024/01/13 00:45:57;;;;;;;25.20;7.82;;;2.50;99.90;;;;;;5105182;28;20404;-77
2024/01/13 00:48:22;;;;;;;26.25;8.75;;;2.50;99.90;;;;;;5094810;28;20462;-77
2024/01/13 00:50:48;;;;;;;29.50;8.47;;;2.50;99.90;;;;;;5085414;28;21124;-77
2024/01/13 00:53:14;;;;;;;30.17;8.17;;;2.50;99.90;;;;;;5094575;28;20401;-77
2024/01/13 00:55:39;;;;;;;31.33;8.55;;;2.50;99.90;;;;;;5102221;28;21194;-77
2024/01/13 00:58:05;;;;;;;32.10;8.43;;;2.50;99.90;;;;;;5104491;28;20396;-77
2024/01/13 01:00:30;;;;;;;28.63;8.20;;;2.40;99.90;;;;;;5101848;28;20856;-77
2024/01/13 01:02:56;;;;;;;34.00;7.30;;;2.50;99.90;;;;;;5103762;28;20412;-77
2024/01/13 01:05:22;;;;;;;24.70;6.83;;;2.40;99.90;;;;;;5103031;28;20768;-77
2024/01/13 01:07:50;;;;;;;21.05;6.18;;;2.50;99.90;;;;;;5103433;28;20393;-77
2024/01/13 01:10:16;;;;;;;22.50;7.07;;;2.50;99.90;;;;;;5098895;28;20971;-77
2024/01/13 01:12:42;;;;;;;17.90;5.87;;;2.50;99.90;;;;;;5099728;28;20397;-77
2024/01/13 01:15:08;;;;;;;13.87;5.67;;;2.60;99.90;;;;;;5084917;28;20506;-77
2024/01/13 01:17:33;;;;;;;15.98;6.15;;;2.60;99.90;;;;;;5104596;28;20403;-77
2024/01/13 01:19:59;;;;;;;18.25;5.90;;;2.60;99.90;;;;;;5100282;28;20410;-77
2024/01/13 01:22:24;;;;;;;18.40;5.90;;;2.60;99.90;;;;;;5102892;28;20428;-77
2024/01/13 01:24:50;;;;;;;20.00;6.82;;;2.60;99.90;;;;;;5100387;28;20394;-77
2024/01/13 01:27:16;;;;;;;18.20;6.47;;;2.60;99.90;;;;;;5101828;28;20404;-77
2024/01/13 01:29:41;;;;;;;18.27;6.37;;;2.60;99.90;;;;;;5098950;28;20465;-77
2024/01/13 01:32:07;;;;;;;18.92;6.63;;;2.60;99.90;;;;;;5102035;28;20404;-77
2024/01/13 01:34:32;;;;;;;23.03;6.70;;;2.60;99.90;;;;;;5097310;28;20405;-77
2024/01/13 01:36:58;;;;;;;24.33;6.65;;;2.60;99.90;;;;;;5099147;28;20405;-77
2024/01/13 01:39:24;;;;;;;28.48;7.68;;;2.60;99.90;;;;;;5103202;28;20469;-77
2024/01/13 01:41:50;;;;;;;28.67;6.95;;;2.60;99.90;;;;;;5104101;28;20404;-77
2024/01/13 01:44:15;;;;;;;28.15;7.53;;;2.60;99.90;;;;;;5090182;28;20404;-77
2024/01/13 01:46:43;;;;;;;26.90;7.50;;;2.60;99.90;;;;;;5087163;28;20455;-77
2024/01/13 01:49:12;;;;;;;24.67;7.40;;;2.60;99.90;;;;;;5079881;28;20433;-77
2024/01/13 01:51:41;;;;;;;17.10;5.38;;;2.60;99.90;;;;;;5093184;28;20474;-77
2024/01/13 01:54:07;;;;;;;23.48;7.00;;;2.60;99.90;;;;;;5096317;28;20448;-77
2024/01/13 01:56:34;;;;;;;16.73;5.10;;;2.60;99.90;;;;;;5092490;28;20481;-77
2024/01/13 01:59:01;;;;;;;19.08;5.75;;;2.70;99.90;;;;;;5089191;28;20457;-77
2024/01/13 02:01:30;;;;;;;21.45;5.72;;;2.70;99.90;;;;;;5076744;28;20437;-77
2024/01/13 02:03:57;;;;;;;18.75;5.07;;;2.70;99.90;;;;;;5084525;28;20448;-77
2024/01/13 02:06:23;;;;;;;20.45;5.15;;;2.70;99.90;;;;;;5089172;28;20907;-77
2024/01/13 02:08:49;;;;;;;20.85;5.93;;;2.70;99.90;;;;;;5090973;28;20425;-77
2024/01/13 02:11:15;;;;;;;19.65;5.40;;;2.70;99.90;;;;;;5072350;28;21364;-77
2024/01/13 02:13:42;;;;;;;16.13;5.57;;;2.80;99.90;;;;;;5088579;28;20412;-77
2024/01/13 02:16:09;;;;;;;17.48;4.80;;;2.70;99.90;;;;;;5088633;28;20497;-77
2024/01/13 02:18:35;;;;;;;14.43;4.80;;;2.70;99.90;;;;;;5088602;28;20927;-76
2024/01/13 02:21:01;;;;;;;13.90;4.60;;;2.70;99.90;;;;;;5093335;28;20402;-76
2024/01/13 02:23:26;;;;;;;14.63;4.55;;;2.70;99.90;;;;;;5101751;28;20472;-77
2024/01/13 02:25:52;;;;;;;15.15;4.78;;;2.70;99.90;;;;;;5098864;28;20402;-77
2024/01/13 02:28:18;;;;;;;15.13;4.90;;;2.70;99.90;;;;;;5101368;28;20719;-77
2024/01/13 02:30:44;;;;;;;13.83;4.27;;;2.70;99.90;;;;;;5096774;28;20516;-77
2024/01/13 02:33:09;;;;;;;14.25;4.50;;;2.70;99.90;;;;;;5101931;28;20397;-77
2024/01/13 02:35:35;;;;;;;15.70;4.22;;;2.70;99.90;;;;;;5106074;27;20399;-77
2024/01/13 02:38:00;;;;;;;11.57;3.97;;;2.70;99.90;;;;;;5095441;28;20398;-77
2024/01/13 02:40:26;;;;;;;14.43;4.60;;;2.70;99.90;;;;;;5088667;28;20417;-77
2024/01/13 02:42:51;;;;;;;17.55;5.28;;;2.70;99.90;;;;;;5102470;28;20530;-77
2024/01/13 02:45:17;;;;;;;18.17;4.87;;;2.70;99.90;;;;;;5088892;28;20399;-77
2024/01/13 02:47:45;;;;;;;18.03;5.03;;;2.70;99.90;;;;;;5101913;28;20393;-76
2024/01/13 02:50:11;;;;;;;15.48;4.72;;;2.70;99.90;;;;;;5097298;28;20421;-76
2024/01/13 02:52:37;;;;;;;14.80;4.43;;;2.70;99.90;;;;;;5100806;28;21070;-76
2024/01/13 02:55:03;;;;;;;14.60;4.30;;;2.70;99.90;;;;;;5094912;28;20438;-77
2024/01/13 02:57:29;;;;;;;14.65;4.63;;;2.70;99.90;;;;;;5088263;28;20406;-77
2024/01/13 02:59:54;;;;;;;13.48;4.70;;;2.70;99.90;;;;;;5088081;28;20468;-77
2024/01/13 03:02:20;;;;;;;19.93;5.60;;;2.70;99.90;;;;;;5089988;28;20398;-77
2024/01/13 03:04:45;;;;;;;13.30;4.47;;;2.70;99.90;;;;;;5089412;28;20405;-77
2024/01/13 03:07:11;;;;;;;14.27;4.72;;;2.70;99.90;;;;;;5089120;28;20437;-78
2024/01/13 03:09:37;;;;;;;16.53;5.13;;;2.80;99.90;;;;;;5088765;28;20764;-76
2024/01/13 03:12:02;;;;;;;14.35;5.00;;;2.70;99.90;;;;;;5087036;28;20453;-77
2024/01/13 03:14:30;;;;;;;16.73;5.15;;;2.70;99.90;;;;;;5094265;28;20400;-77
2024/01/13 03:16:55;;;;;;;10.30;4.40;;;2.80;99.90;;;;;;5105947;28;20436;-77
2024/01/13 03:19:21;;;;;;;11.25;4.18;;;2.80;99.90;;;;;;5107302;28;20427;-77
2024/01/13 03:21:46;;;;;;;13.97;4.17;;;2.80;99.90;;;;;;5107311;28;20388;-77
2024/01/13 03:24:12;;;;;;;12.77;4.30;;;2.80;99.90;;;;;;5106143;28;20477;-77
2024/01/13 03:26:38;;;;;;;14.35;4.05;;;2.80;99.90;;;;;;5106532;28;20478;-77
2024/01/13 03:29:03;;;;;;;11.80;3.80;;;2.80;99.90;;;;;;5105624;28;20852;-77
2024/01/13 03:31:29;;;;;;;15.13;4.60;;;2.80;99.90;;;;;;5129865;28;20465;-77
2024/01/13 03:33:54;;;;;;;13.03;3.57;;;2.80;99.90;;;;;;5116843;28;20408;-76
2024/01/13 03:36:20;;;;;;;11.97;3.53;;;2.80;99.90;;;;;;5106105;28;20404;-77
2024/01/13 03:38:46;;;;;;;14.50;3.92;;;2.80;99.90;;;;;;5104276;28;20412;-77
2024/01/13 03:41:13;;;;;;;11.80;3.50;;;2.80;99.90;;;;;;5105985;28;20531;-77
2024/01/13 03:43:39;;;;;;;13.13;3.50;;;2.80;99.90;;;;;;5105149;28;20572;-76
2024/01/13 03:46:05;;;;;;;8.40;2.80;;;2.80;99.90;;;;;;5087348;28;20541;-77
2024/01/13 03:48:31;;;;;;;10.17;3.03;;;2.80;99.90;;;;;;5104860;28;20396;-76
2024/01/13 03:50:57;;;;;;;11.03;2.90;;;2.80;99.90;;;;;;5105541;28;20659;-76
2024/01/13 03:53:23;;;;;;;13.70;3.03;;;2.80;99.90;;;;;;5103361;28;20413;-77
2024/01/13 03:55:48;;;;;;;10.45;2.65;;;2.90;99.90;;;;;;5094322;28;20406;-76
2024/01/13 03:58:14;;;;;;;8.77;2.35;;;2.90;99.90;;;;;;5088164;28;20752;-76
2024/01/13 04:00:40;;;;;;;12.63;2.57;;;2.90;99.90;;;;;;5089024;28;20396;-77
2024/01/13 04:03:05;;;;;;;10.10;2.20;;;2.90;99.90;;;;;;5087553;28;20471;-77
2024/01/13 04:05:31;;;;;;;7.43;2.05;;;2.90;99.90;;;;;;5087723;28;20485;-77
2024/01/13 04:07:57;;;;;;;7.03;2.00;;;2.90;99.90;;;;;;5087413;28;20405;-77
2024/01/13 04:10:22;;;;;;;9.10;1.97;;;2.90;99.90;;;;;;5088870;28;20491;-77
2024/01/13 04:12:48;;;;;;;7.30;2.35;;;2.90;99.90;;;;;;5088902;28;20381;-77
2024/01/13 04:15:13;;;;;;;5.73;1.80;;;2.90;99.90;;;;;;5087518;28;20957;-77
2024/01/13 04:17:40;;;;;;;9.87;2.20;;;2.90;99.90;;;;;;5088935;28;20402;-77
2024/01/13 04:20:06;;;;;;;9.98;2.17;;;2.90;99.90;;;;;;5088592;28;20772;-77
2024/01/13 04:22:32;;;;;;;8.80;2.10;;;2.90;99.90;;;;;;5087500;28;20455;-77
2024/01/13 04:24:57;;;;;;;6.88;1.80;;;2.80;99.90;;;;;;5087204;28;20409;-77
2024/01/13 04:27:23;;;;;;;8.93;2.00;;;2.80;99.90;;;;;;5107167;28;20961;-76
2024/01/13 04:29:49;;;;;;;6.75;1.83;;;2.80;99.90;;;;;;5107432;28;20440;-77
2024/01/13 04:32:14;;;;;;;7.68;2.03;;;2.90;99.90;;;;;;5106018;28;20457;-77
2024/01/13 04:34:40;;;;;;;9.20;1.87;;;2.80;99.90;;;;;;5107525;28;20392;-77
2024/01/13 04:37:05;;;;;;;9.68;1.90;;;2.80;99.90;;;;;;5105555;28;20397;-76
2024/01/13 04:39:31;;;;;;;7.82;2.10;;;2.80;99.90;;;;;;5106407;28;20538;-77
2024/01/13 04:41:57;;;;;;;8.13;2.43;;;2.80;99.90;;;;;;5103762;28;20667;-77
2024/01/13 04:44:22;;;;;;;9.83;2.57;;;2.80;99.90;;;;;;5105948;28;20408;-77
2024/01/13 04:46:48;;;;;;;9.88;2.75;;;2.80;99.90;;;;;;5105265;28;20400;-77
2024/01/13 04:49:14;;;;;;;9.80;2.60;;;2.80;99.90;;;;;;5094482;28;20406;-77
2024/01/13 04:51:39;;;;;;;7.93;2.70;;;2.80;99.90;;;;;;5098920;28;20422;-77
2024/01/13 04:54:05;;;;;;;11.60;3.47;;;2.90;99.90;;;;;;5086839;28;20406;-77
2024/01/13 04:56:30;;;;;;;14.20;3.10;;;2.90;99.90;;;;;;5088169;28;20485;-77
2024/01/13 04:58:56;;;;;;;12.38;3.30;;;2.90;99.90;;;;;;5087797;28;20477;-77
2024/01/13 05:01:22;;;;;;;8.50;2.63;;;2.90;99.90;;;;;;5086827;28;20414;-77
2024/01/13 05:03:47;;;;;;;7.23;2.73;;;2.90;99.90;;;;;;5087875;28;20398;-77
2024/01/13 05:06:15;;;;;;;10.77;3.07;;;2.90;99.90;;;;;;5087367;28;20482;-77
2024/01/13 05:08:41;;;;;;;8.30;2.55;;;2.80;99.90;;;;;;5087425;28;20420;-77
2024/01/13 05:11:07;;;;;;;7.97;2.92;;;2.80;99.90;;;;;;5090356;28;20426;-77
2024/01/13 05:13:33;;;;;;;9.65;2.80;;;2.80;99.90;;;;;;5091974;28;20473;-77
2024/01/13 05:15:59;;;;;;;10.40;3.03;;;2.70;99.90;;;;;;5090757;28;20394;-77
2024/01/13 05:18:25;;;;;;;10.35;3.00;;;2.70;99.90;;;;;;5091897;28;20900;-77
2024/01/13 05:20:51;;;;;;;12.15;3.20;;;2.80;99.90;;;;;;5096353;28;20397;-77
2024/01/13 05:23:17;;;;;;;12.18;3.58;;;2.80;99.90;;;;;;5110446;28;20475;-77
2024/01/13 05:25:42;;;;;;;11.38;3.28;;;2.70;99.90;;;;;;5096376;27;20396;-77
2024/01/13 05:28:08;;;;;;;10.32;3.33;;;2.70;99.90;;;;;;5097635;28;20518;-77
2024/01/13 05:30:35;;;;;;;14.75;3.83;;;2.80;99.90;;;;;;5108240;28;20431;-77
2024/01/13 05:33:01;;;;;;;14.50;3.85;;;2.80;99.90;;;;;;5097426;28;20523;-77
2024/01/13 05:35:27;;;;;;;9.48;3.20;;;2.80;99.90;;;;;;5095703;28;20437;-77
2024/01/13 05:37:53;;;;;;;10.02;3.15;;;2.80;99.90;;;;;;5097510;28;20779;-77
2024/01/13 05:40:21;;;;;;;11.60;3.57;;;2.80;99.90;;;;;;5106621;28;20396;-77
2024/01/13 05:42:47;;;;;;;15.52;4.00;;;2.80;99.90;;;;;;5108510;28;20404;-77
2024/01/13 05:45:13;;;;;;;13.00;3.93;;;2.80;99.90;;;;;;5105586;28;20690;-77
2024/01/13 05:47:38;;;;;;;12.90;3.90;;;2.80;99.90;;;;;;5108595;28;20388;-77
2024/01/13 05:50:05;;;;;;;11.02;3.97;;;2.80;99.90;;;;;;5103471;28;20504;-77
2024/01/13 05:52:30;;;;;;;21.33;4.70;;;2.80;99.90;;;;;;5108683;28;20404;-77
2024/01/13 05:54:56;;;;;;;11.80;3.97;;;2.80;99.90;;;;;;5088726;28;20409;-77
2024/01/13 05:57:22;;;;;;;16.15;3.92;;;2.80;99.90;;;;;;5091034;28;20402;-77
2024/01/13 05:59:48;;;;;;;11.65;3.50;;;2.90;99.90;;;;;;5091158;28;20900;-77
2024/01/13 06:02:15;;;;;;;11.50;3.57;;;2.80;99.90;;;;;;5089820;28;20446;-77
2024/01/13 06:04:41;;;;;;;14.77;3.90;;;2.80;99.90;;;;;;5089385;28;20495;-77
2024/01/13 06:07:06;;;;;;;10.30;3.30;;;2.80;99.90;;;;;;5089662;28;21065;-77
2024/01/13 06:09:32;;;;;;;13.40;3.17;;;2.80;99.90;;;;;;5089658;28;20413;-77
2024/01/13 06:11:58;;;;;;;9.30;3.00;;;2.80;99.90;;;;;;5089125;28;20811;-77
2024/01/13 06:14:24;;;;;;;11.65;2.90;;;2.80;99.90;;;;;;5089425;28;20757;-77
2024/01/13 06:16:50;;;;;;;12.45;3.28;;;2.80;99.90;;;;;;5071619;28;20417;-77
2024/01/13 06:19:15;;;;;;;11.35;3.25;;;2.80;99.90;;;;;;5106820;28;20448;-77
2024/01/13 06:21:42;;;;;;;11.30;3.00;;;2.80;99.90;;;;;;5109158;28;20396;-77
2024/01/13 06:24:11;;;;;;;15.07;3.97;;;2.90;99.90;;;;;;5107275;28;20488;-77
2024/01/13 06:26:39;;;;;;;11.43;3.47;;;2.90;99.90;;;;;;5109045;28;20983;-77
2024/01/13 06:29:05;;;;;;;18.60;5.65;;;2.90;99.90;;;;;;5107759;28;20411;-78
2024/01/13 06:31:31;;;;;;;11.20;3.42;;;2.90;99.90;;;;;;5108114;28;20516;-77
2024/01/13 06:33:56;;;;;;;11.75;3.70;;;2.90;99.90;;;;;;5104128;28;20475;-78
2024/01/13 06:36:22;;;;;;;11.93;4.43;;;2.80;99.90;;;;;;5107563;28;20880;-77
2024/01/13 06:38:48;;;;;;;10.93;3.28;;;2.90;99.90;;;;;;5104523;28;20392;-77
2024/01/13 06:41:13;;;;;;;9.97;3.80;;;2.90;99.90;;;;;;5106333;28;20400;-77
2024/01/13 06:43:39;;;;;;;14.48;3.47;;;2.90;99.90;;;;;;5103696;28;20914;-77
2024/01/13 06:46:07;;;;;;;14.13;4.18;;;2.90;99.90;;;;;;5105585;28;20393;-77
2024/01/13 06:48:33;;;;;;;13.55;4.10;;;2.90;99.90;;;;;;5101387;28;20409;-77
2024/01/13 06:50:59;;;;;;;11.98;4.00;;;2.90;99.90;;;;;;5094497;28;20433;-77
2024/01/13 06:53:25;;;;;;;11.32;3.30;;;2.90;99.90;;;;;;5092862;28;20401;-77
2024/01/13 06:55:51;;;;;;;14.33;3.83;;;2.90;99.90;;;;;;5095346;28;20398;-77
2024/01/13 06:58:16;;;;;;;13.52;3.78;;;2.90;99.90;;;;;;5089007;28;20410;-77
2024/01/13 07:00:42;;;;;;;11.37;3.60;;;2.90;99.90;;;;;;5089613;28;21051;-77
2024/01/13 07:03:08;;;;;;;10.67;3.33;;;2.90;99.90;;;;;;5089439;28;20409;-77
2024/01/13 07:05:34;;;;;;;9.52;3.25;;;2.90;99.90;;;;;;5088818;28;20399;-77
2024/01/13 07:08:00;;;;;;;16.77;4.13;;;2.90;99.90;;;;;;5087723;28;20402;-77
2024/01/13 07:10:29;;;;;;;11.55;3.60;;;2.90;99.90;;;;;;5089116;28;20547;-77
2024/01/13 07:12:54;;;;;;;12.65;3.75;;;2.90;99.90;;;;;;5087283;28;20417;-77
2024/01/13 07:15:20;;;;;;;11.60;3.60;;;3.00;99.90;;;;;;5088149;28;20410;-77
2024/01/13 07:17:46;;;;;;;10.83;3.07;;;3.00;99.90;;;;;;5087305;28;20487;-77
2024/01/13 07:20:11;;;;;;;11.30;3.25;;;3.00;99.90;;;;;;5087049;28;20409;-77
2024/01/13 07:22:37;;;;;;;14.47;3.60;;;3.00;99.90;;;;;;5087673;28;20408;-77
2024/01/13 07:25:04;;;;;;;9.43;3.00;;;3.00;99.90;;;;;;5087143;28;20445;-77
2024/01/13 07:27:29;;;;;;;7.90;2.70;;;3.00;99.90;;;;;;5106931;28;20479;-77
2024/01/13 07:29:55;;;;;;;9.20;2.50;;;3.00;99.90;;;;;;5107824;28;20507;-77
2024/01/13 07:32:21;;;;;;;9.55;3.08;;;3.10;99.90;;;;;;5105396;28;20428;-77
2024/01/13 07:34:46;;;;;;;9.73;2.90;;;3.10;99.90;;;;;;5106204;28;20484;-77
2024/01/13 07:37:12;;;;;;;8.48;2.45;;;3.10;99.90;;;;;;5106902;28;20973;-77
2024/01/13 07:39:38;;;;;;;9.00;2.50;;;3.10;99.90;;;;;;5107530;28;20393;-77
2024/01/13 07:42:03;;;;;;;6.70;2.37;;;3.10;99.90;;;;;;5106073;28;20393;-77
2024/01/13 07:44:29;;;;;;;7.72;2.30;;;3.20;99.90;;;;;;5108151;28;20461;-77
2024/01/13 07:47:00;;;;;;;9.63;2.80;;;3.20;99.90;;;;;;5107364;28;20404;-77
2024/01/13 07:49:27;;;;;;;7.15;3.00;;;3.20;99.90;;;;;;5107459;28;20400;-77
2024/01/13 07:51:54;;;;;;;8.80;3.08;;;3.20;99.90;;;;;;5106868;28;20523;-77
2024/01/13 07:54:20;;;;;;;9.88;3.47;;;3.20;99.90;;;;;;5105615;28;20406;-77
2024/01/13 07:56:47;;;;;;;12.32;3.70;;;3.20;99.90;;;;;;5088943;28;20896;-77
2024/01/13 07:59:13;;;;;;;12.32;4.00;;;3.20;99.90;;;;;;5087358;28;20409;-77
2024/01/13 08:01:39;;;;;;;14.13;4.80;;;3.20;99.90;;;;;;5088022;28;20488;-77
2024/01/13 08:04:05;;;;;;;17.33;5.47;;;3.20;99.90;;;;;;5087352;28;20818;-77
2024/01/13 08:06:31;;;;;;;17.88;6.32;;;3.20;99.90;;;;;;5088017;28;20418;-77
2024/01/13 08:08:57;;;;;;;23.13;8.32;;;3.20;99.90;;;;;;5079324;28;20917;-79
2024/01/13 08:11:23;;;;;;;26.55;8.95;;;3.20;99.90;;;;;;5082719;28;20536;-78
2024/01/13 08:13:48;;;;;;;20.50;7.72;;;3.20;99.90;;;;;;5086205;28;20488;-78
2024/01/13 08:16:14;;;;;;;24.77;9.03;;;3.20;99.90;;;;;;5079076;28;20491;-77
2024/01/13 08:18:40;;;;;;;32.53;10.77;;;3.20;99.90;;;;;;5074777;28;20408;-78
2024/01/13 08:21:06;;;;;;;35.92;12.10;;;3.20;99.90;;;;;;5080488;28;20847;-78
2024/01/13 08:23:32;;;;;;;35.33;12.88;;;3.20;99.90;;;;;;5075739;28;20515;-78
2024/01/13 08:25:58;;;;;;;44.10;16.77;;;3.20;99.90;;;;;;5088140;28;20395;-78
2024/01/13 08:28:24;;;;;;;44.97;17.00;;;3.20;99.90;;;;;;5081086;28;20761;-78
2024/01/13 08:30:49;;;;;;;53.90;20.40;;;3.20;99.90;;;;;;5076295;28;20427;-79
2024/01/13 08:33:15;;;;;;;59.60;21.50;;;3.20;99.90;;;;;;5075253;28;20481;-78
2024/01/13 08:35:41;;;;;;;58.00;22.10;;;3.20;99.90;;;;;;5081660;28;20414;-78
2024/01/13 08:38:07;;;;;;;68.60;25.53;;;3.20;99.90;;;;;;5078725;28;20403;-77
2024/01/13 08:40:32;;;;;;;68.60;26.40;;;3.20;99.90;;;;;;5079109;28;20401;-78
2024/01/13 08:43:00;;;;;;;83.53;31.07;;;3.20;99.90;;;;;;5086072;28;20413;-78
2024/01/13 08:45:29;;;;;;;82.03;31.27;;;3.20;99.90;;;;;;5076795;28;20410;-78
2024/01/13 08:47:58;;;;;;;96.43;36.90;;;3.20;99.90;;;;;;5085530;28;20446;-77
2024/01/13 08:50:24;;;;;;;104.20;36.20;;;3.20;99.90;;;;;;5092209;28;20432;-77
2024/01/13 08:52:51;;;;;;;105.63;38.63;;;3.20;99.90;;;;;;5093057;28;20927;-77
2024/01/13 08:55:18;;;;;;;115.35;44.75;;;3.20;99.90;;;;;;5090594;28;20402;-77
2024/01/13 08:57:44;;;;;;;117.05;44.78;;;3.30;99.90;;;;;;5089496;28;20909;-78
2024/01/13 09:00:10;;;;;;;125.60;49.10;;;3.20;99.90;;;;;;5090853;28;20471;-78
2024/01/13 09:02:36;;;;;;;122.73;49.47;;;3.30;99.90;;;;;;5069892;28;20445;-78
2024/01/13 09:05:01;;;;;;;118.67;50.20;;;3.30;99.90;;;;;;5076558;28;20413;-78
2024/01/13 09:07:27;;;;;;;137.13;51.07;;;3.30;99.90;;;;;;5105557;28;20494;-78
2024/01/13 09:09:53;;;;;;;117.65;48.97;;;3.30;99.90;;;;;;5095541;28;20429;-77
2024/01/13 09:12:18;;;;;;;128.38;49.13;;;3.30;99.90;;;;;;5087336;28;20426;-77
2024/01/13 09:14:45;;;;;;;123.53;47.27;;;3.20;99.90;;;;;;5087268;28;20413;-78
2024/01/13 09:17:11;;;;;;;125.78;48.20;;;3.20;99.90;;;;;;5088875;28;20502;-78
2024/01/13 09:19:37;;;;;;;113.57;45.75;;;3.30;99.90;;;;;;5100316;28;20618;-78
2024/01/13 09:22:03;;;;;;;127.22;47.03;;;3.20;99.90;;;;;;5088771;28;20430;-78
2024/01/13 09:24:29;;;;;;;117.30;48.50;;;3.30;99.90;;;;;;5096400;28;20456;-77
2024/01/13 09:26:57;;;;;;;119.35;49.40;;;3.30;99.90;;;;;;5097054;28;20772;-78
2024/01/13 09:29:23;;;;;;;126.88;49.55;;;3.20;99.90;;;;;;5101232;28;20431;-78
2024/01/13 09:31:49;;;;;;;126.43;50.08;;;3.30;99.90;;;;;;5089020;28;20944;-79
2024/01/13 09:34:16;;;;;;;128.10;52.20;;;3.30;99.90;;;;;;5090858;28;20434;-79
2024/01/13 09:36:42;;;;;;;125.47;52.03;;;3.30;99.90;;;;;;5093304;28;20449;-78
2024/01/13 09:39:11;;;;;;;130.75;52.33;;;3.40;99.90;;;;;;5091681;28;21060;-78
2024/01/13 09:41:42;;;;;;;141.60;53.28;;;3.40;99.90;;;;;;5094144;28;20398;-78
2024/01/13 09:44:22;;;;;;;133.90;50.50;;;3.40;99.90;;;;;;5096240;28;20485;-78
2024/01/13 09:46:53;;;;;;;129.55;50.22;;;3.40;99.90;;;;;;5092414;28;21210;-78
2024/01/13 09:49:20;;;;;;;131.90;50.90;;;3.40;99.90;;;;;;5089881;28;20539;-78
2024/01/13 09:51:46;;;;;;;123.28;49.53;;;3.40;99.90;;;;;;5095239;28;20481;-78
2024/01/13 09:54:19;;;;;;;138.65;50.38;;;3.40;99.90;;;;;;5087737;28;20425;-78
2024/01/13 09:56:48;;;;;;;134.43;51.63;;;3.50;99.90;;;;;;5086665;28;21022;-78
2024/01/13 09:59:14;;;;;;;123.70;49.45;;;3.50;99.90;;;;;;5089895;28;20422;-78
2024/01/13 10:01:41;;;;;;;129.93;50.50;;;3.50;99.90;;;;;;5090547;28;20955;-78
2024/01/13 10:04:08;;;;;;;126.80;50.55;;;3.50;99.90;;;;;;5088106;28;20459;-78
2024/01/13 10:06:35;;;;;;;124.68;48.75;;;3.50;99.90;;;;;;5092223;28;20414;-78
2024/01/13 10:09:01;;;;;;;101.05;42.30;;;3.50;99.90;;;;;;5071362;28;20429;-78
2024/01/13 10:11:28;;;;;;;113.05;46.95;;;3.50;99.90;;;;;;5088680;28;20434;-78
2024/01/13 10:14:04;;;;;;;109.32;45.25;;;3.60;99.90;;;;;;5087479;28;20405;-78
2024/01/13 10:16:31;;;;;;;109.90;45.78;;;3.60;99.90;;;;;;5089803;28;20437;-78
2024/01/13 10:19:06;;;;;;;108.78;46.75;;;3.70;99.90;;;;;;5091490;28;20463;-77
2024/01/13 10:21:32;;;;;;;116.95;46.85;;;3.70;99.90;;;;;;5098738;28;20406;-78
2024/01/13 10:24:00;;;;;;;105.45;46.00;;;3.70;99.90;;;;;;5094285;28;20444;-78
2024/01/13 10:26:28;;;;;;;95.30;44.10;;;3.70;99.90;;;;;;5108315;28;20439;-78
2024/01/13 10:28:57;;;;;;;93.43;39.30;;;3.80;99.90;;;;;;5089442;28;21017;-78
2024/01/13 10:31:24;;;;;;;83.78;40.08;;;3.80;99.90;;;;;;5088820;28;20500;-77
2024/01/13 10:33:50;;;;;;;86.97;39.53;;;3.80;99.90;;;;;;5084106;28;20872;-78
2024/01/13 10:36:27;;;;;;;83.70;37.60;;;3.90;99.90;;;;;;5099559;28;20425;-78
2024/01/13 10:38:53;;;;;;;76.20;34.10;;;3.90;99.90;;;;;;5100054;28;20440;-78
2024/01/13 10:41:23;;;;;;;79.88;35.38;;;4.00;99.90;;;;;;5104755;28;20432;-78
2024/01/13 10:43:54;;;;;;;75.55;35.15;;;4.00;99.90;;;;;;5091953;28;20470;-78
2024/01/13 10:46:23;;;;;;;75.30;33.08;;;4.10;99.90;;;;;;5089276;28;20456;-78
2024/01/13 10:48:51;;;;;;;69.00;33.00;;;4.10;99.90;;;;;;5095480;28;20453;-78
2024/01/13 10:51:27;;;;;;;67.95;30.33;;;4.10;99.90;;;;;;5070091;28;20444;-78
2024/01/13 10:53:58;;;;;;;71.13;32.00;;;4.20;99.90;;;;;;5093884;28;20937;-78
2024/01/13 10:56:25;;;;;;;60.60;27.63;;;4.30;99.90;;;;;;5089533;28;20520;-78
2024/01/13 10:58:52;;;;;;;58.65;25.05;;;4.30;99.90;;;;;;5088565;28;20414;-78
2024/01/13 11:01:19;;;;;;;54.97;22.77;;;4.30;99.90;;;;;;5089348;28;20488;-78
2024/01/13 11:03:47;;;;;;;54.67;23.27;;;4.30;99.90;;;;;;5086610;28;20474;-79
2024/01/13 11:06:13;;;;;;;56.47;23.85;;;4.30;99.90;;;;;;5088716;28;20406;-76
2024/01/13 11:08:39;;;;;;;50.87;23.03;;;4.30;99.90;;;;;;5085979;28;21493;-77
2024/01/13 11:11:07;;;;;;;49.47;22.10;;;4.30;99.90;;;;;;5091189;28;20439;-76
2024/01/13 11:13:39;;;;;;;48.63;21.80;;;4.30;99.90;;;;;;5094613;28;20421;-77
2024/01/13 11:16:13;;;;;;;46.97;20.83;;;4.30;99.90;;;;;;5097840;28;20475;-78
2024/01/13 11:18:45;;;;;;;52.57;20.63;;;4.30;99.90;;;;;;5096584;28;20428;-77
2024/01/13 11:21:11;;;;;;;50.03;20.08;;;4.30;99.90;;;;;;5094857;28;20521;-78
2024/01/13 11:23:54;;;;;;;47.50;19.65;;;4.30;99.90;;;;;;5093499;28;20457;-77
2024/01/13 11:26:27;;;;;;;52.28;20.27;;;4.30;99.90;;;;;;5097267;28;20881;-78
2024/01/13 11:28:54;;;;;;;47.25;18.65;;;4.30;99.90;;;;;;5092583;28;20567;-77
2024/01/13 11:31:38;;;;;;;49.20;19.13;;;4.30;99.90;;;;;;5096994;28;20426;-77
2024/01/13 11:34:09;;;;;;;42.45;16.40;;;4.30;99.90;;;;;;5092766;28;20766;-77
2024/01/13 11:36:39;;;;;;;38.22;15.27;;;4.30;99.90;;;;;;5096027;28;20481;-77
2024/01/13 11:39:06;;;;;;;40.35;15.80;;;4.40;99.90;;;;;;5091452;28;20423;-77
2024/01/13 11:41:49;;;;;;;39.20;15.07;;;4.30;99.90;;;;;;5087333;28;20803;-77
2024/01/13 11:44:19;;;;;;;44.70;15.07;;;4.40;99.90;;;;;;5084965;28;20471;-77
2024/01/13 11:46:56;;;;;;;42.63;15.50;;;4.40;99.90;;;;;;5092091;28;20432;-77
2024/01/13 11:49:33;;;;;;;38.25;15.23;;;4.40;99.90;;;;;;5094422;28;20993;-77
2024/01/13 11:52:01;;;;;;;46.60;16.95;;;4.40;99.90;;;;;;5090875;28;20440;-77
2024/01/13 11:54:28;;;;;;;43.13;16.65;;;4.40;99.90;;;;;;5098785;28;20424;-77
2024/01/13 11:56:54;;;;;;;40.58;16.35;;;4.40;99.90;;;;;;5087185;28;20833;-76
2024/01/13 11:59:20;;;;;;;46.17;15.88;;;4.30;99.90;;;;;;5087908;28;20409;-77
2024/01/13 12:01:46;;;;;;;34.40;12.77;;;4.30;99.90;;;;;;5087192;28;20471;-77
2024/01/13 12:04:15;;;;;;;39.50;13.90;;;4.40;99.90;;;;;;5085561;28;20410;-77
2024/01/13 12:06:43;;;;;;;29.02;10.73;;;4.40;99.90;;;;;;5088006;28;20481;-77
2024/01/13 12:09:12;;;;;;;28.67;10.98;;;4.40;99.90;;;;;;5089032;28;20494;-77
2024/01/13 12:11:39;;;;;;;31.00;10.23;;;4.50;99.90;;;;;;5095682;28;20512;-77
2024/01/13 12:14:06;;;;;;;26.15;9.00;;;4.40;99.90;;;;;;5099777;28;20497;-78
2024/01/13 12:16:34;;;;;;;19.45;6.97;;;4.50;99.90;;;;;;5097429;28;20408;-77
2024/01/13 12:19:00;;;;;;;20.92;6.93;;;4.50;99.90;;;;;;5093874;28;20526;-77
2024/01/13 12:21:26;;;;;;;13.07;5.37;;;4.50;99.90;;;;;;5091712;28;20401;-77
2024/01/13 12:23:51;;;;;;;14.35;4.55;;;4.50;99.90;;;;;;5105613;28;20406;-77
2024/01/13 12:26:17;;;;;;;13.48;4.68;;;4.50;99.90;;;;;;5090353;28;20445;-77
2024/01/13 12:28:44;;;;;;;11.53;3.93;;;4.60;99.90;;;;;;5092882;28;20409;-77
2024/01/13 12:31:10;;;;;;;13.27;3.90;;;4.70;99.90;;;;;;5083310;28;20430;-77
2024/01/13 12:33:36;;;;;;;10.90;3.33;;;4.70;99.90;;;;;;5090682;28;20402;-77
2024/01/13 12:36:03;;;;;;;11.57;3.30;;;4.80;99.90;;;;;;5090182;28;20457;-76
2024/01/13 12:38:30;;;;;;;8.55;2.35;;;4.80;99.90;;;;;;5086060;28;20399;-77
2024/01/13 12:40:59;;;;;;;10.52;3.08;;;4.80;99.90;;;;;;5081523;28;20412;-77